createdAt,value
2019-06-10T00:00:31.869Z,17.99
2019-06-10T00:01:31.576Z,18.11
2019-06-10T00:02:32.220Z,18.01
2019-06-10T00:03:31.927Z,17.84
2019-06-10T00:04:32.621Z,17.66
2019-06-10T00:05:31.751Z,17.74
2019-06-10T00:06:31.943Z,17.83
2019-06-10T00:07:32.134Z,17.84
2019-06-10T00:08:32.309Z,17.77
2019-06-10T00:09:32.459Z,17.84
2019-06-10T00:10:32.620Z,17.92
2019-06-10T00:11:32.790Z,17.91
2019-06-10T00:12:32.969Z,17.80
2019-06-10T00:13:33.115Z,17.73
2019-06-10T00:14:33.289Z,17.74
2019-06-10T00:15:33.474Z,17.63
2019-06-10T00:16:33.662Z,17.71
2019-06-10T00:17:33.803Z,17.98
2019-06-10T00:18:41.848Z,18.62
2019-06-10T00:19:36.140Z,18.90
2019-06-10T00:20:34.372Z,19.12
2019-06-10T00:21:34.521Z,19.13
2019-06-10T00:22:34.682Z,19.07
2019-06-10T00:23:34.811Z,18.64
2019-06-10T00:24:34.947Z,18.60
2019-06-10T00:25:35.077Z,18.09
2019-06-10T00:26:35.235Z,18.04
2019-06-10T00:27:35.364Z,17.81
2019-06-10T00:28:35.510Z,17.86
2019-06-10T00:29:35.639Z,18.02
2019-06-10T00:30:35.779Z,18.20
2019-06-10T00:31:35.929Z,18.16
2019-06-10T00:32:36.081Z,18.14
2019-06-10T00:33:36.249Z,17.95
2019-06-10T00:34:36.368Z,17.71
2019-06-10T00:35:36.500Z,17.68
2019-06-10T00:36:36.636Z,17.71
2019-06-10T00:37:36.775Z,17.71
2019-06-10T00:38:36.920Z,17.68
2019-06-10T00:39:37.040Z,17.55
2019-06-10T00:40:37.178Z,17.45
2019-06-10T00:41:37.350Z,17.40
2019-06-10T00:42:37.536Z,17.35
2019-06-10T00:43:37.665Z,17.58
2019-06-10T00:44:37.815Z,17.80
2019-06-10T00:45:37.962Z,17.95
2019-06-10T00:46:38.131Z,17.96
2019-06-10T00:47:38.289Z,17.91
2019-06-10T00:48:40.844Z,17.98
2019-06-10T00:49:40.912Z,17.95
2019-06-10T00:50:41.146Z,17.91
2019-06-10T00:51:41.329Z,17.74
2019-06-10T00:52:42.174Z,17.73
2019-06-10T00:53:42.291Z,17.63
2019-06-10T00:54:41.661Z,17.42
2019-06-10T00:55:41.572Z,17.43
2019-06-10T00:56:41.354Z,17.47
2019-06-10T00:57:41.820Z,17.42
2019-06-10T00:58:41.274Z,17.51
2019-06-10T00:59:41.396Z,17.60
2019-06-10T01:00:41.880Z,18.02
2019-06-10T01:01:41.591Z,18.19
2019-06-10T01:02:42.025Z,18.78
2019-06-10T01:03:41.638Z,19.42
2019-06-10T01:04:42.402Z,19.43
2019-06-10T01:05:42.350Z,19.32
2019-06-10T01:06:42.845Z,19.27
2019-06-10T01:07:42.044Z,19.15
2019-06-10T01:08:42.215Z,18.93
2019-06-10T01:09:42.350Z,18.78
2019-06-10T01:10:44.118Z,18.69
2019-06-10T01:11:58.281Z,18.54
2019-06-10T01:12:42.853Z,18.62
2019-06-10T01:13:44.005Z,18.53
2019-06-10T01:14:43.211Z,18.34
2019-06-10T01:15:43.467Z,18.05
2019-06-10T01:16:43.618Z,17.83
2019-06-10T01:17:43.750Z,17.71
2019-06-10T01:18:43.906Z,17.53
2019-06-10T01:19:44.040Z,17.47
2019-06-10T01:20:44.294Z,17.42
2019-06-10T01:21:44.415Z,17.22
2019-06-10T01:22:44.535Z,17.10
2019-06-10T01:23:44.688Z,17.12
2019-06-10T01:24:44.842Z,17.18
2019-06-10T01:25:44.973Z,17.09
2019-06-10T01:26:45.231Z,17.06
2019-06-10T01:27:45.348Z,17.07
2019-06-10T01:28:45.467Z,17.09
2019-06-10T01:29:45.643Z,16.96
2019-06-10T01:30:45.791Z,16.99
2019-06-10T01:31:45.937Z,17.09
2019-06-10T01:32:46.086Z,17.09
2019-06-10T01:33:46.205Z,17.03
2019-06-10T01:34:46.348Z,17.17
2019-06-10T01:35:46.475Z,17.15
2019-06-10T01:36:46.600Z,17.49
2019-06-10T01:37:46.762Z,17.81
2019-06-10T01:38:46.897Z,18.42
2019-06-10T01:39:47.021Z,18.34
2019-06-10T01:40:47.169Z,18.31
2019-06-10T01:41:47.336Z,18.13
2019-06-10T01:42:47.469Z,18.23
2019-06-10T01:43:47.692Z,18.23
2019-06-10T01:44:47.931Z,17.96
2019-06-10T01:45:48.081Z,17.95
2019-06-10T01:46:48.213Z,17.96
2019-06-10T01:47:48.344Z,17.87
2019-06-10T01:48:48.652Z,17.79
2019-06-10T01:49:48.666Z,17.73
2019-06-10T01:50:51.065Z,17.60
2019-06-10T01:51:51.319Z,17.49
2019-06-10T01:52:51.436Z,17.24
2019-06-10T01:53:51.261Z,17.27
2019-06-10T01:54:51.527Z,17.17
2019-06-10T01:55:51.985Z,17.18
2019-06-10T01:56:51.258Z,17.17
2019-06-10T01:57:51.826Z,17.07
2019-06-10T01:58:51.593Z,17.10
2019-06-10T01:59:50.987Z,17.17
2019-06-10T02:00:51.796Z,17.09
2019-06-10T02:01:51.799Z,17.03
2019-06-10T02:02:52.520Z,17.02
2019-06-10T02:03:52.453Z,17.03
2019-06-10T02:04:51.876Z,16.87
2019-06-10T02:05:52.914Z,17.03
2019-06-10T02:06:52.130Z,17.17
2019-06-10T02:07:52.308Z,17.39
2019-06-10T02:08:52.453Z,17.58
2019-06-10T02:09:52.583Z,17.94
2019-06-10T02:10:52.694Z,18.39
2019-06-10T02:11:52.969Z,18.62
2019-06-10T02:12:53.095Z,18.60
2019-06-10T02:13:53.223Z,18.42
2019-06-10T02:14:53.354Z,18.25
2019-06-10T02:15:53.500Z,17.92
2019-06-10T02:16:53.676Z,17.73
2019-06-10T02:17:53.814Z,17.57
2019-06-10T02:19:00.159Z,17.49
2019-06-10T02:19:56.109Z,17.45
2019-06-10T02:20:54.317Z,17.54
2019-06-10T02:21:54.478Z,17.45
2019-06-10T02:22:54.661Z,17.38
2019-06-10T02:23:54.840Z,17.21
2019-06-10T02:24:54.991Z,17.15
2019-06-10T02:25:55.162Z,17.42
2019-06-10T02:26:55.291Z,17.73
2019-06-10T02:27:55.471Z,17.51
2019-06-10T02:28:55.601Z,17.45
2019-06-10T02:29:55.739Z,17.21
2019-06-10T02:30:56.169Z,17.10
2019-06-10T02:31:56.111Z,16.91
2019-06-10T02:32:56.232Z,16.88
2019-06-10T02:33:56.460Z,16.81
2019-06-10T02:35:08.798Z,16.81
2019-06-10T02:35:58.822Z,16.73
2019-06-10T02:36:57.017Z,17.06
2019-06-10T02:37:57.140Z,17.06
2019-06-10T02:38:57.408Z,17.15
2019-06-10T02:39:57.550Z,17.38
2019-06-10T02:40:57.654Z,17.80
2019-06-10T02:41:57.875Z,18.13
2019-06-10T02:42:57.995Z,18.17
2019-06-10T02:43:58.135Z,18.62
2019-06-10T02:44:58.273Z,18.69
2019-06-10T02:45:58.400Z,18.66
2019-06-10T02:46:58.638Z,18.36
2019-06-10T02:47:58.865Z,18.16
2019-06-10T02:49:17.622Z,17.89
2019-06-10T02:50:04.547Z,17.91
2019-06-10T02:51:03.778Z,17.79
2019-06-10T02:52:03.108Z,17.73
2019-06-10T02:52:59.785Z,17.54
2019-06-10T02:53:59.894Z,17.49
2019-06-10T02:55:03.746Z,17.32
2019-06-10T02:56:00.242Z,17.42
2019-06-10T02:57:04.125Z,17.40
2019-06-10T02:58:03.744Z,17.43
2019-06-10T02:59:03.197Z,17.39
2019-06-10T03:00:06.550Z,17.51
2019-06-10T03:01:04.210Z,17.53
2019-06-10T03:02:03.049Z,17.58
2019-06-10T03:03:03.876Z,17.77
2019-06-10T03:04:04.417Z,17.79
2019-06-10T03:05:04.494Z,17.80
2019-06-10T03:06:06.430Z,17.83
2019-06-10T03:07:03.939Z,17.66
2019-06-10T03:08:03.946Z,17.66
2019-06-10T03:09:03.856Z,17.54
2019-06-10T03:10:04.628Z,17.57
2019-06-10T03:11:04.065Z,17.55
2019-06-10T03:12:04.791Z,17.57
2019-06-10T03:13:04.087Z,17.46
2019-06-10T03:14:03.221Z,17.40
2019-06-10T03:15:03.350Z,17.46
2019-06-10T03:16:03.492Z,17.43
2019-06-10T03:17:03.622Z,17.49
2019-06-10T03:18:03.868Z,17.47
2019-06-10T03:19:04.145Z,17.27
2019-06-10T03:20:04.268Z,17.36
2019-06-10T03:21:04.388Z,17.30
2019-06-10T03:22:04.654Z,17.39
2019-06-10T03:23:04.802Z,17.21
2019-06-10T03:24:04.921Z,17.38
2019-06-10T03:25:05.043Z,17.14
2019-06-10T03:26:05.162Z,17.47
2019-06-10T03:27:05.335Z,17.54
2019-06-10T03:28:05.443Z,17.42
2019-06-10T03:29:05.701Z,17.43
2019-06-10T03:30:15.366Z,17.38
2019-06-10T03:31:08.012Z,17.14
2019-06-10T03:32:06.189Z,17.18
2019-06-10T03:33:06.325Z,17.14
2019-06-10T03:34:06.432Z,17.03
2019-06-10T03:35:06.660Z,17.00
2019-06-10T03:36:06.895Z,17.05
2019-06-10T03:37:07.134Z,17.09
2019-06-10T03:38:07.394Z,17.03
2019-06-10T03:39:07.504Z,16.96
2019-06-10T03:40:07.722Z,17.00
2019-06-10T03:41:07.837Z,16.92
2019-06-10T03:42:08.079Z,16.87
2019-06-10T03:43:08.352Z,16.95
2019-06-10T03:44:08.454Z,16.92
2019-06-10T03:45:08.669Z,17.02
2019-06-10T03:46:08.802Z,17.07
2019-06-10T03:47:09.014Z,17.12
2019-06-10T03:48:09.280Z,16.99
2019-06-10T03:49:09.512Z,16.99
2019-06-10T03:50:09.649Z,16.92
2019-06-10T03:51:12.384Z,16.88
2019-06-10T03:52:09.960Z,16.81
2019-06-10T03:53:12.672Z,16.85
2019-06-10T03:54:12.875Z,16.85
2019-06-10T03:55:12.204Z,16.95
2019-06-10T03:56:12.818Z,16.78
2019-06-10T03:57:12.133Z,16.90
2019-06-10T03:58:12.553Z,16.84
2019-06-10T03:59:12.483Z,16.90
2019-06-10T04:00:13.946Z,16.90
2019-06-10T04:01:12.720Z,16.82
2019-06-10T04:02:12.776Z,16.82
2019-06-10T04:03:13.080Z,16.98
2019-06-10T04:04:13.030Z,16.91
2019-06-10T04:05:13.504Z,17.02
2019-06-10T04:06:13.200Z,17.00
2019-06-10T04:07:14.307Z,16.99
2019-06-10T04:08:14.065Z,16.91
2019-06-10T04:09:13.345Z,16.96
2019-06-10T04:10:13.470Z,17.02
2019-06-10T04:11:13.596Z,16.99
2019-06-10T04:12:13.715Z,17.15
2019-06-10T04:13:13.825Z,17.07
2019-06-10T04:14:14.065Z,17.18
2019-06-10T04:15:14.169Z,17.18
2019-06-10T04:16:14.402Z,17.15
2019-06-10T04:17:14.527Z,17.22
2019-06-10T04:18:14.648Z,17.22
2019-06-10T04:19:14.793Z,17.36
2019-06-10T04:20:15.671Z,17.33
2019-06-10T04:21:16.046Z,17.27
2019-06-10T04:22:15.234Z,17.35
2019-06-10T04:23:15.477Z,17.46
2019-06-10T04:24:15.641Z,17.55
2019-06-10T04:25:15.792Z,17.58
2019-06-10T04:26:15.952Z,17.66
2019-06-10T04:27:16.071Z,17.62
2019-06-10T04:28:16.211Z,17.66
2019-06-10T04:29:16.388Z,17.70
2019-06-10T04:30:16.725Z,17.76
2019-06-10T04:31:18.191Z,17.76
2019-06-10T04:32:16.805Z,17.62
2019-06-10T04:33:18.288Z,17.57
2019-06-10T04:34:18.258Z,17.65
2019-06-10T04:35:18.368Z,17.55
2019-06-10T04:36:18.339Z,17.55
2019-06-10T04:37:18.380Z,17.65
2019-06-10T04:38:18.321Z,17.55
2019-06-10T04:39:18.450Z,17.40
2019-06-10T04:40:20.341Z,17.32
2019-06-10T04:41:18.418Z,17.25
2019-06-10T04:42:20.896Z,17.21
2019-06-10T04:43:18.844Z,17.09
2019-06-10T04:44:18.971Z,17.10
2019-06-10T04:45:19.128Z,17.07
2019-06-10T04:46:20.644Z,17.33
2019-06-10T04:47:20.577Z,17.27
2019-06-10T04:48:21.217Z,17.42
2019-06-10T04:49:21.364Z,17.42
2019-06-10T04:50:30.173Z,17.40
2019-06-10T04:51:23.907Z,17.43
2019-06-10T04:52:23.320Z,17.60
2019-06-10T04:53:21.345Z,17.60
2019-06-10T04:54:23.024Z,17.71
2019-06-10T04:55:23.193Z,17.73
2019-06-10T04:56:24.246Z,17.66
2019-06-10T04:57:23.830Z,17.74
2019-06-10T04:58:24.428Z,17.81
2019-06-10T04:59:24.363Z,17.84
2019-06-10T05:00:24.103Z,18.23
2019-06-10T05:01:25.544Z,18.31
2019-06-10T05:02:25.502Z,18.36
2019-06-10T05:03:24.932Z,18.35
2019-06-10T05:04:25.084Z,18.38
2019-06-10T05:05:25.285Z,18.38
2019-06-10T05:06:25.498Z,18.39
2019-06-10T05:07:25.619Z,18.38
2019-06-10T05:08:23.920Z,18.46
2019-06-10T05:09:26.352Z,18.50
2019-06-10T05:10:25.240Z,18.46
2019-06-10T05:11:26.683Z,18.57
2019-06-10T05:12:26.235Z,18.53
2019-06-10T05:13:25.583Z,18.50
2019-06-10T05:14:25.725Z,18.54
2019-06-10T05:15:27.771Z,18.56
2019-06-10T05:16:30.082Z,18.65
2019-06-10T05:17:27.506Z,18.56
2019-06-10T05:18:27.642Z,18.65
2019-06-10T05:19:26.406Z,18.83
2019-06-10T05:20:44.503Z,18.74
2019-06-10T05:21:29.365Z,18.79
2019-06-10T05:22:27.288Z,18.79
2019-06-10T05:23:26.426Z,18.75
2019-06-10T05:24:29.281Z,18.74
2019-06-10T05:25:28.473Z,18.72
2019-06-10T05:26:27.657Z,18.82
2019-06-10T05:27:27.026Z,18.79
2019-06-10T05:28:28.728Z,18.96
2019-06-10T05:29:29.521Z,19.06
2019-06-10T05:30:29.457Z,19.25
2019-06-10T05:31:28.911Z,19.53
2019-06-10T05:32:29.060Z,19.38
2019-06-10T05:33:28.608Z,19.49
2019-06-10T05:34:28.744Z,19.40
2019-06-10T05:35:29.337Z,19.38
2019-06-10T05:36:29.860Z,19.21
2019-06-10T05:37:29.424Z,19.30
2019-06-10T05:38:31.263Z,19.23
2019-06-10T05:39:30.797Z,19.25
2019-06-10T05:40:29.936Z,19.38
2019-06-10T05:41:30.740Z,19.46
2019-06-10T05:42:33.538Z,19.34
2019-06-10T05:43:33.952Z,19.43
2019-06-10T05:44:33.145Z,19.57
2019-06-10T05:45:30.551Z,19.47
2019-06-10T05:46:30.338Z,19.46
2019-06-10T05:47:34.241Z,19.47
2019-06-10T05:48:33.049Z,19.85
2019-06-10T05:49:35.659Z,20.16
2019-06-10T05:50:33.160Z,20.19
2019-06-10T05:51:33.378Z,20.30
2019-06-10T05:52:33.471Z,20.44
2019-06-10T05:53:33.582Z,20.60
2019-06-10T05:54:33.622Z,20.58
2019-06-10T05:55:34.849Z,20.75
2019-06-10T05:56:33.898Z,20.97
2019-06-10T05:57:35.206Z,21.05
2019-06-10T05:58:34.491Z,21.18
2019-06-10T05:59:35.468Z,21.36
2019-06-10T06:00:35.434Z,21.36
2019-06-10T06:01:37.980Z,21.45
2019-06-10T06:02:35.484Z,21.52
2019-06-10T06:03:36.921Z,21.64
2019-06-10T06:04:35.918Z,21.52
2019-06-10T06:05:36.123Z,21.52
2019-06-10T06:06:35.444Z,21.66
2019-06-10T06:07:35.547Z,21.77
2019-06-10T06:08:35.490Z,21.96
2019-06-10T06:09:35.400Z,22.21
2019-06-10T06:10:36.062Z,22.52
2019-06-10T06:11:35.404Z,22.45
2019-06-10T06:12:35.854Z,22.49
2019-06-10T06:13:36.089Z,22.38
2019-06-10T06:14:36.183Z,22.30
2019-06-10T06:15:36.085Z,22.30
2019-06-10T06:16:36.239Z,22.24
2019-06-10T06:17:36.364Z,22.29
2019-06-10T06:18:36.462Z,22.19
2019-06-10T06:19:38.761Z,22.20
2019-06-10T06:20:37.622Z,22.08
2019-06-10T06:21:41.843Z,21.94
2019-06-10T06:22:38.127Z,21.98
2019-06-10T06:23:37.080Z,21.85
2019-06-10T06:24:37.972Z,21.86
2019-06-10T06:25:42.930Z,21.77
2019-06-10T06:26:39.804Z,21.82
2019-06-10T06:27:38.315Z,21.56
2019-06-10T06:28:38.423Z,21.64
2019-06-10T06:29:38.296Z,21.85
2019-06-10T06:30:37.832Z,21.99
2019-06-10T06:31:37.969Z,22.04
2019-06-10T06:32:38.257Z,22.06
2019-06-10T06:33:39.897Z,22.08
2019-06-10T06:34:39.440Z,22.11
2019-06-10T06:35:42.853Z,22.29
2019-06-10T06:36:42.249Z,22.29
2019-06-10T06:37:39.727Z,22.33
2019-06-10T06:38:40.267Z,22.44
2019-06-10T06:39:39.492Z,22.52
2019-06-10T06:40:39.620Z,22.61
2019-06-10T06:41:42.403Z,22.64
2019-06-10T06:42:40.032Z,22.69
2019-06-10T06:43:44.392Z,22.81
2019-06-10T06:44:43.285Z,22.45
2019-06-10T06:45:42.651Z,22.48
2019-06-10T06:46:42.887Z,22.44
2019-06-10T06:47:43.724Z,22.59
2019-06-10T06:48:43.929Z,22.64
2019-06-10T06:49:42.614Z,22.56
2019-06-10T06:51:00.327Z,22.75
2019-06-10T06:51:54.566Z,22.84
2019-06-10T06:53:15.477Z,22.99
2019-06-10T06:53:51.705Z,23.56
2019-06-10T06:54:44.403Z,23.54
2019-06-10T06:55:43.273Z,23.69
2019-06-10T06:56:44.015Z,24.09
2019-06-10T06:57:43.429Z,24.08
2019-06-10T06:58:44.223Z,24.05
2019-06-10T06:59:43.435Z,23.96
2019-06-10T07:01:00.625Z,23.89
2019-06-10T07:01:45.813Z,23.71
2019-06-10T07:02:43.853Z,23.45
2019-06-10T07:03:44.992Z,23.49
2019-06-10T07:04:45.149Z,23.56
2019-06-10T07:05:44.312Z,23.60
2019-06-10T07:06:44.513Z,23.67
2019-06-10T07:07:44.681Z,23.49
2019-06-10T07:09:00.429Z,23.19
2019-06-10T07:09:47.026Z,23.26
2019-06-10T07:10:45.177Z,23.07
2019-06-10T07:11:45.604Z,22.97
2019-06-10T07:12:45.584Z,23.25
2019-06-10T07:13:46.073Z,23.25
2019-06-10T07:14:46.958Z,23.21
2019-06-10T07:15:47.339Z,23.23
2019-06-10T07:16:47.204Z,23.25
2019-06-10T07:17:46.334Z,23.37
2019-06-10T07:18:50.246Z,23.19
2019-06-10T07:19:47.670Z,23.01
2019-06-10T07:20:46.795Z,23.09
2019-06-10T07:22:05.375Z,23.39
2019-06-10T07:22:49.049Z,23.62
2019-06-10T07:23:48.261Z,23.68
2019-06-10T07:24:47.855Z,23.69
2019-06-10T07:25:47.824Z,23.38
2019-06-10T07:26:52.115Z,23.53
2019-06-10T07:27:49.898Z,23.35
2019-06-10T07:28:48.115Z,23.57
2019-06-10T07:29:48.302Z,23.93
2019-06-10T07:30:52.759Z,24.18
2019-06-10T07:31:53.611Z,24.19
2019-06-10T07:32:49.819Z,24.49
2019-06-10T07:33:48.953Z,24.64
2019-06-10T07:34:49.144Z,24.39
2019-06-10T07:35:49.334Z,24.09
2019-06-10T07:36:49.460Z,24.04
2019-06-10T07:37:52.161Z,24.15
2019-06-10T07:38:53.575Z,23.92
2019-06-10T07:39:52.172Z,24.21
2019-06-10T07:40:52.857Z,24.93
2019-06-10T07:41:52.782Z,25.22
2019-06-10T07:42:52.914Z,25.22
2019-06-10T07:43:52.828Z,25.94
2019-06-10T07:44:52.985Z,26.32
2019-06-10T07:45:53.375Z,26.42
2019-06-10T07:46:52.969Z,26.73
2019-06-10T07:47:53.369Z,26.83
2019-06-10T07:48:56.343Z,26.65
2019-06-10T07:49:53.378Z,26.66
2019-06-10T07:50:53.230Z,26.64
2019-06-10T07:51:53.315Z,26.73
2019-06-10T07:52:52.874Z,26.61
2019-06-10T07:53:53.658Z,26.83
2019-06-10T07:54:53.121Z,26.97
2019-06-10T07:55:53.961Z,26.90
2019-06-10T07:56:53.943Z,27.03
2019-06-10T07:57:54.875Z,27.12
2019-06-10T07:58:53.598Z,27.39
2019-06-10T07:59:53.896Z,27.23
2019-06-10T08:00:54.877Z,27.20
2019-06-10T08:01:55.223Z,27.43
2019-06-10T08:02:55.886Z,27.02
2019-06-10T08:03:55.372Z,26.94
2019-06-10T08:04:55.396Z,26.49
2019-06-10T08:05:55.373Z,25.71
2019-06-10T08:06:55.384Z,25.60
2019-06-10T08:07:55.879Z,25.66
2019-06-10T08:08:55.485Z,25.61
2019-06-10T08:09:55.631Z,25.53
2019-06-10T08:10:55.760Z,25.16
2019-06-10T08:11:56.902Z,25.20
2019-06-10T08:12:56.414Z,25.26
2019-06-10T08:13:56.330Z,25.60
2019-06-10T08:14:57.391Z,26.08
2019-06-10T08:15:56.628Z,26.36
2019-06-10T08:16:57.419Z,26.87
2019-06-10T08:17:57.897Z,27.25
2019-06-10T08:19:22.210Z,27.28
2019-06-10T08:20:02.312Z,27.55
2019-06-10T08:20:58.386Z,27.95
2019-06-10T08:21:57.613Z,27.68
2019-06-10T08:22:57.937Z,27.84
2019-06-10T08:23:58.921Z,27.74
2019-06-10T08:24:58.885Z,27.45
2019-06-10T08:25:58.896Z,27.78
2019-06-10T08:26:58.352Z,27.84
2019-06-10T08:27:59.380Z,28.05
2019-06-10T08:28:58.642Z,28.17
2019-06-10T08:30:14.100Z,28.17
2019-06-10T08:30:59.916Z,28.51
2019-06-10T08:32:03.061Z,28.79
2019-06-10T08:32:59.165Z,29.11
2019-06-10T08:33:59.338Z,28.73
2019-06-10T08:35:02.620Z,29.00
2019-06-10T08:36:00.724Z,29.14
2019-06-10T08:37:04.199Z,29.17
2019-06-10T08:38:02.465Z,29.44
2019-06-10T08:39:03.246Z,29.76
2019-06-10T08:40:03.645Z,30.15
2019-06-10T08:41:02.871Z,30.32
2019-06-10T08:42:03.142Z,30.01
2019-06-10T08:43:00.879Z,30.03
2019-06-10T08:44:02.283Z,29.54
2019-06-10T08:45:03.482Z,28.67
2019-06-10T08:46:02.666Z,28.35
2019-06-10T08:47:03.391Z,28.43
2019-06-10T08:48:02.701Z,28.17
2019-06-10T08:49:03.298Z,27.20
2019-06-10T08:50:03.323Z,26.90
2019-06-10T08:51:03.985Z,26.87
2019-06-10T08:52:03.917Z,26.93
2019-06-10T08:53:13.911Z,27.33
2019-06-10T08:54:05.395Z,27.52
2019-06-10T08:55:03.504Z,27.71
2019-06-10T08:56:04.045Z,27.77
2019-06-10T08:57:04.673Z,27.72
2019-06-10T08:58:03.497Z,27.69
2019-06-10T08:59:03.650Z,27.40
2019-06-10T09:00:10.910Z,27.52
2019-06-10T09:01:05.014Z,27.24
2019-06-10T09:02:04.266Z,27.43
2019-06-10T09:03:05.411Z,27.71
2019-06-10T09:04:05.410Z,27.48
2019-06-10T09:05:05.422Z,27.84
2019-06-10T09:06:05.422Z,28.13
2019-06-10T09:07:05.913Z,28.23
2019-06-10T09:08:06.417Z,28.50
2019-06-10T09:09:05.529Z,28.32
2019-06-10T09:10:06.409Z,28.64
2019-06-10T09:11:05.919Z,29.18
2019-06-10T09:12:06.898Z,29.71
2019-06-10T09:13:06.953Z,29.92
2019-06-10T09:14:07.406Z,29.86
2019-06-10T09:15:07.404Z,29.62
2019-06-10T09:16:15.486Z,29.37
2019-06-10T09:17:08.415Z,29.20
2019-06-10T09:18:07.918Z,29.14
2019-06-10T09:19:07.928Z,29.10
2019-06-10T09:20:08.407Z,28.82
2019-06-10T09:21:07.644Z,28.52
2019-06-10T09:22:07.931Z,28.46
2019-06-10T09:23:21.556Z,28.42
2019-06-10T09:24:12.883Z,27.98
2019-06-10T09:25:08.321Z,28.08
2019-06-10T09:26:08.442Z,28.46
2019-06-10T09:27:08.611Z,28.94
2019-06-10T09:28:08.779Z,29.29
2019-06-10T09:29:09.427Z,29.37
2019-06-10T09:30:09.072Z,29.37
2019-06-10T09:31:09.197Z,29.41
2019-06-10T09:32:09.458Z,29.71
2019-06-10T09:33:09.598Z,30.10
2019-06-10T09:34:09.729Z,30.61
2019-06-10T09:35:12.630Z,31.03
2019-06-10T09:36:12.394Z,31.41
2019-06-10T09:37:12.450Z,31.68
2019-06-10T09:38:14.062Z,31.07
2019-06-10T09:39:12.583Z,30.66
2019-06-10T09:40:12.456Z,30.72
2019-06-10T09:41:13.856Z,30.34
2019-06-10T09:42:14.461Z,30.48
2019-06-10T09:43:12.957Z,30.38
2019-06-10T09:44:13.410Z,30.01
2019-06-10T09:45:13.006Z,30.03
2019-06-10T09:46:12.801Z,30.32
2019-06-10T09:47:14.261Z,30.21
2019-06-10T09:48:13.390Z,29.78
2019-06-10T09:49:12.913Z,29.55
2019-06-10T09:50:12.539Z,29.25
2019-06-10T09:51:12.647Z,28.88
2019-06-10T09:52:13.657Z,29.02
2019-06-10T09:53:28.933Z,29.00
2019-06-10T09:54:14.256Z,29.26
2019-06-10T09:55:13.920Z,29.42
2019-06-10T09:56:13.480Z,29.45
2019-06-10T09:57:13.700Z,29.73
2019-06-10T09:58:14.415Z,29.78
2019-06-10T09:59:14.957Z,29.79
2019-06-10T10:00:14.922Z,29.97
2019-06-10T10:01:15.420Z,29.82
2019-06-10T10:02:14.631Z,29.70
2019-06-10T10:03:15.430Z,29.86
2019-06-10T10:04:14.909Z,30.06
2019-06-10T10:05:15.437Z,30.28
2019-06-10T10:06:16.193Z,30.28
2019-06-10T10:07:15.321Z,30.61
2019-06-10T10:08:16.443Z,30.78
2019-06-10T10:09:15.682Z,30.61
2019-06-10T10:10:15.951Z,29.97
2019-06-10T10:11:16.080Z,29.25
2019-06-10T10:12:16.316Z,28.76
2019-06-10T10:13:16.464Z,28.73
2019-06-10T10:14:16.585Z,28.70
2019-06-10T10:15:29.891Z,29.23
2019-06-10T10:16:17.866Z,29.57
2019-06-10T10:17:17.955Z,29.86
2019-06-10T10:18:17.930Z,29.85
2019-06-10T10:19:17.929Z,29.86
2019-06-10T10:20:17.947Z,30.28
2019-06-10T10:21:17.940Z,30.38
2019-06-10T10:22:18.926Z,30.00
2019-06-10T10:23:18.170Z,28.89
2019-06-10T10:24:18.931Z,28.01
2019-06-10T10:25:18.942Z,27.81
2019-06-10T10:26:18.691Z,28.01
2019-06-10T10:27:19.431Z,28.25
2019-06-10T10:28:22.287Z,29.00
2019-06-10T10:29:20.236Z,29.36
2019-06-10T10:30:19.953Z,29.63
2019-06-10T10:31:19.944Z,30.13
2019-06-10T10:32:22.583Z,30.70
2019-06-10T10:33:20.118Z,30.91
2019-06-10T10:34:23.590Z,30.53
2019-06-10T10:35:21.480Z,30.13
2019-06-10T10:36:22.580Z,29.88
2019-06-10T10:37:22.902Z,29.89
2019-06-10T10:38:23.121Z,29.73
2019-06-10T10:39:23.916Z,29.29
2019-06-10T10:40:23.296Z,28.77
2019-06-10T10:41:24.068Z,28.30
2019-06-10T10:42:23.766Z,28.52
2019-06-10T10:43:32.700Z,28.45
2019-06-10T10:44:24.141Z,28.11
2019-06-10T10:45:22.934Z,27.84
2019-06-10T10:46:23.253Z,27.55
2019-06-10T10:47:27.441Z,27.24
2019-06-10T10:48:23.902Z,27.09
2019-06-10T10:49:23.936Z,27.13
2019-06-10T10:50:23.957Z,27.12
2019-06-10T10:51:23.481Z,27.31
2019-06-10T10:52:24.443Z,27.81
2019-06-10T10:53:23.952Z,28.02
2019-06-10T10:54:33.995Z,27.87
2019-06-10T10:55:26.149Z,27.46
2019-06-10T10:56:24.460Z,27.49
2019-06-10T10:57:25.446Z,27.38
2019-06-10T10:58:24.835Z,27.09
2019-06-10T10:59:24.960Z,27.30
2019-06-10T11:00:25.945Z,27.53
2019-06-10T11:01:25.960Z,27.72
2019-06-10T11:02:25.445Z,27.99
2019-06-10T11:03:25.963Z,28.08
2019-06-10T11:04:26.440Z,28.09
2019-06-10T11:05:26.953Z,28.14
2019-06-10T11:06:26.985Z,28.25
2019-06-10T11:07:26.464Z,28.02
2019-06-10T11:08:26.620Z,28.14
2019-06-10T11:09:26.771Z,28.15
2019-06-10T11:10:26.987Z,28.25
2019-06-10T11:11:27.951Z,27.93
2019-06-10T11:12:27.465Z,27.77
2019-06-10T11:13:28.466Z,27.84
2019-06-10T11:14:27.723Z,27.53
2019-06-10T11:15:28.459Z,28.20
2019-06-10T11:16:28.087Z,28.24
2019-06-10T11:17:29.221Z,28.35
2019-06-10T11:18:28.965Z,27.95
2019-06-10T11:19:29.457Z,27.71
2019-06-10T11:20:29.486Z,27.52
2019-06-10T11:21:29.958Z,27.66
2019-06-10T11:22:29.959Z,27.55
2019-06-10T11:23:29.372Z,27.55
2019-06-10T11:24:37.820Z,27.84
2019-06-10T11:25:33.259Z,28.05
2019-06-10T11:26:32.840Z,28.01
2019-06-10T11:27:30.855Z,28.02
2019-06-10T11:28:32.182Z,28.13
2019-06-10T11:29:32.946Z,28.09
2019-06-10T11:30:32.385Z,28.15
2019-06-10T11:31:32.822Z,28.27
2019-06-10T11:32:32.816Z,28.06
2019-06-10T11:33:33.638Z,27.91
2019-06-10T11:34:33.229Z,27.87
2019-06-10T11:35:33.501Z,27.84
2019-06-10T11:36:32.718Z,27.95
2019-06-10T11:37:32.473Z,27.95
2019-06-10T11:38:32.934Z,28.03
2019-06-10T11:39:37.841Z,28.33
2019-06-10T11:40:34.296Z,28.50
2019-06-10T11:41:34.463Z,28.39
2019-06-10T11:42:59.240Z,28.40
2019-06-10T11:43:34.001Z,28.50
2019-06-10T11:44:34.030Z,28.76
2019-06-10T11:45:34.407Z,28.82
2019-06-10T11:46:33.619Z,28.67
2019-06-10T11:47:33.747Z,28.74
2019-06-10T11:48:34.020Z,28.62
2019-06-10T11:49:34.138Z,28.62
2019-06-10T11:50:34.275Z,28.94
2019-06-10T11:51:34.469Z,29.27
2019-06-10T11:52:35.471Z,29.37
2019-06-10T11:53:34.985Z,29.02
2019-06-10T11:54:50.904Z,29.07
2019-06-10T11:55:36.977Z,29.02
2019-06-10T11:56:35.487Z,28.95
2019-06-10T11:57:35.510Z,28.97
2019-06-10T11:58:36.488Z,28.62
2019-06-10T11:59:36.004Z,28.11
2019-06-10T12:00:36.977Z,27.09
2019-06-10T12:01:36.194Z,27.39
2019-06-10T12:02:36.978Z,27.53
2019-06-10T12:03:36.969Z,27.78
2019-06-10T12:04:37.005Z,28.17
2019-06-10T12:05:37.474Z,28.61
2019-06-10T12:06:36.951Z,28.83
2019-06-10T12:07:37.083Z,28.50
2019-06-10T12:08:37.299Z,28.23
2019-06-10T12:09:37.863Z,28.27
2019-06-10T12:10:37.976Z,28.40
2019-06-10T12:11:39.603Z,28.62
2019-06-10T12:12:38.073Z,28.65
2019-06-10T12:13:38.978Z,28.33
2019-06-10T12:14:38.498Z,28.25
2019-06-10T12:16:13.971Z,28.13
2019-06-10T12:17:50.638Z,27.61
2019-06-10T12:18:42.606Z,27.48
2019-06-10T12:19:39.979Z,27.35
2019-06-10T12:20:39.531Z,27.61
2019-06-10T12:21:43.223Z,27.53
2019-06-10T12:22:42.384Z,27.53
2019-06-10T12:23:39.941Z,27.66
2019-06-10T12:24:43.016Z,27.84
2019-06-10T12:25:42.943Z,27.98
2019-06-10T12:26:43.250Z,28.23
2019-06-10T12:27:43.354Z,28.30
2019-06-10T12:28:43.210Z,28.43
2019-06-10T12:29:42.336Z,28.64
2019-06-10T12:30:42.534Z,28.65
2019-06-10T12:31:42.936Z,28.64
2019-06-10T12:32:43.487Z,28.74
2019-06-10T12:33:42.206Z,29.03
2019-06-10T12:34:45.895Z,28.91
2019-06-10T12:35:42.392Z,29.21
2019-06-10T12:36:43.988Z,29.62
2019-06-10T12:37:42.697Z,29.69
2019-06-10T12:38:43.807Z,29.70
2019-06-10T12:39:43.492Z,29.60
2019-06-10T12:40:43.977Z,29.70
2019-06-10T12:41:43.548Z,29.73
2019-06-10T12:42:43.558Z,29.32
2019-06-10T12:43:44.488Z,29.48
2019-06-10T12:44:44.512Z,29.74
2019-06-10T12:45:43.988Z,29.91
2019-06-10T12:46:44.138Z,30.01
2019-06-10T12:47:44.535Z,29.82
2019-06-10T12:48:44.523Z,29.64
2019-06-10T12:49:44.654Z,29.64
2019-06-10T12:50:45.493Z,29.71
2019-06-10T12:51:45.497Z,29.26
2019-06-10T12:52:45.511Z,29.07
2019-06-10T12:53:45.987Z,28.83
2019-06-10T12:54:45.989Z,28.32
2019-06-10T12:55:47.202Z,28.48